createdAt,value
2022-11-17T00:01:21.398Z,97531.28
2022-11-17T00:04:08.456Z,97525.22
2022-11-17T00:06:55.731Z,97508.88
2022-11-17T00:09:43.226Z,97511.31
2022-11-17T00:12:47.780Z,97501.84
2022-11-17T00:15:35.063Z,97489.69
2022-11-17T00:18:40.146Z,97486.50
2022-11-17T00:21:28.875Z,97480.44
2022-11-17T00:24:18.233Z,97472.75
2022-11-17T00:27:05.661Z,97466.66
2022-11-17T00:29:53.227Z,97465.72
2022-11-17T00:32:57.683Z,97461.41
2022-11-17T00:35:51.769Z,97463.00
2022-11-17T00:38:39.089Z,97462.03
2022-11-17T00:41:26.185Z,97437.41
2022-11-17T00:44:14.187Z,97433.09
2022-11-17T00:47:01.172Z,97433.88
2022-11-17T00:49:48.535Z,97421.09
2022-11-17T00:52:37.317Z,97422.84
2022-11-17T00:55:24.561Z,97417.75
2022-11-17T00:58:11.736Z,97407.34
2022-11-17T01:00:58.789Z,97413.41
2022-11-17T01:03:45.903Z,97402.22
2022-11-17T01:06:36.069Z,97399.50
2022-11-17T01:09:25.823Z,97407.97
2022-11-17T01:12:12.844Z,97413.09
2022-11-17T01:14:59.897Z,97401.91
2022-11-17T01:17:47.254Z,97403.66
2022-11-17T01:20:35.004Z,97402.72
2022-11-17T01:23:22.410Z,97399.19
2022-11-17T01:26:14.100Z,97396.63
2022-11-17T01:29:02.812Z,97391.66
2022-11-17T01:31:53.244Z,97379.69
2022-11-17T01:34:40.336Z,97373.75
2022-11-17T01:37:28.566Z,97360.94
2022-11-17T01:40:16.612Z,97351.66
2022-11-17T01:43:10.135Z,97343.97
2022-11-17T01:45:57.861Z,97343.34
2022-11-17T01:48:46.913Z,97327.34
2022-11-17T01:51:39.969Z,97323.19
2022-11-17T01:54:30.755Z,97318.09
2022-11-17T01:57:23.578Z,97314.88
2022-11-17T02:00:14.211Z,97318.38
2022-11-17T02:03:02.037Z,97308.13
2022-11-17T02:05:56.369Z,97291.03
2022-11-17T02:08:47.306Z,97282.53
2022-11-17T02:11:36.264Z,97286.09
2022-11-17T02:14:23.398Z,97268.97
2022-11-17T02:17:14.445Z,97274.06
2022-11-17T02:20:09.522Z,97268.00
2022-11-17T02:23:44.317Z,97272.31
2022-11-17T02:27:21.831Z,97271.53
2022-11-17T02:30:12.546Z,97256.94
2022-11-17T02:33:06.055Z,97249.09
2022-11-17T02:35:59.959Z,97243.03
2022-11-17T02:38:56.764Z,97236.97
2022-11-17T02:41:51.474Z,97225.94
2022-11-17T02:44:45.677Z,97234.25
2022-11-17T02:47:37.397Z,97223.06
2022-11-17T02:50:28.494Z,97212.66
2022-11-17T02:53:17.176Z,97208.31
2022-11-17T02:56:05.008Z,97190.41
2022-11-17T02:58:59.304Z,97196.19
2022-11-17T03:02:32.878Z,97192.00
2022-11-17T03:05:30.171Z,97189.44
2022-11-17T03:08:32.924Z,97193.63
2022-11-17T03:11:30.222Z,97186.72
2022-11-17T03:14:27.562Z,97186.56
2022-11-17T03:17:21.082Z,97189.13
2022-11-17T03:20:17.250Z,97187.38
2022-11-17T03:23:11.811Z,97181.44
2022-11-17T03:26:01.170Z,97172.81
2022-11-17T03:28:48.619Z,97174.56
2022-11-17T03:31:37.710Z,97176.31
2022-11-17T03:34:31.253Z,97158.25
2022-11-17T03:37:20.978Z,97154.09
2022-11-17T03:40:13.486Z,97147.84
2022-11-17T03:43:05.357Z,97170.91
2022-11-17T03:45:56.350Z,97184.50
2022-11-17T03:48:51.356Z,97190.41
2022-11-17T03:51:40.051Z,97181.75
2022-11-17T03:54:27.588Z,97194.56
2022-11-17T03:57:20.109Z,97185.13
2022-11-17T04:00:09.429Z,97192.81
2022-11-17T04:03:02.753Z,97191.03
2022-11-17T04:05:50.197Z,97197.94
2022-11-17T04:08:38.584Z,97200.34
2022-11-17T04:11:43.478Z,97196.66
2022-11-17T04:14:48.158Z,97198.38
2022-11-17T04:17:35.173Z,97193.28
2022-11-17T04:20:22.847Z,97187.19
2022-11-17T04:23:14.080Z,97187.97
2022-11-17T04:26:20.363Z,97186.25
2022-11-17T04:29:07.448Z,97192.31
2022-11-17T04:31:54.508Z,97184.47
2022-11-17T04:34:42.655Z,97185.44
2022-11-17T04:37:30.082Z,97187.03
2022-11-17T04:40:17.192Z,97200.66
2022-11-17T04:43:07.759Z,97197.28
2022-11-17T04:46:00.666Z,97206.72
2022-11-17T04:48:48.769Z,97204.16
2022-11-17T04:51:37.705Z,97191.38
2022-11-17T04:54:26.345Z,97192.16
2022-11-17T04:57:13.442Z,97192.97
2022-11-17T05:00:01.932Z,97181.91
2022-11-17T05:02:49.280Z,97180.31
2022-11-17T05:05:36.310Z,97181.13
2022-11-17T05:08:23.552Z,97177.59
2022-11-17T05:11:29.267Z,97176.97
2022-11-17T05:14:19.801Z,97166.88
2022-11-17T05:17:11.617Z,97166.09
2022-11-17T05:19:58.941Z,97167.06
2022-11-17T05:23:06.829Z,97158.72
2022-11-17T05:25:55.337Z,97170.91
2022-11-17T05:28:42.561Z,97171.84
2022-11-17T05:31:30.939Z,97169.47
2022-11-17T05:34:19.577Z,97168.66
2022-11-17T05:37:07.491Z,97167.06
2022-11-17T05:39:54.566Z,97160.34
2022-11-17T05:42:41.698Z,97150.88
2022-11-17T05:45:28.821Z,97155.22
2022-11-17T05:48:16.219Z,97158.56
2022-11-17T05:51:05.426Z,97148.50
2022-11-17T05:53:52.899Z,97144.34
2022-11-17T05:56:42.965Z,97151.06
2022-11-17T05:59:34.221Z,97158.72
2022-11-17T06:02:25.336Z,97151.88
2022-11-17T06:05:18.698Z,97139.88
2022-11-17T06:08:08.923Z,97138.25
2022-11-17T06:10:56.654Z,97128.03
2022-11-17T06:13:43.787Z,97104.03
2022-11-17T06:16:33.932Z,97111.72
2022-11-17T06:19:26.311Z,97119.38
2022-11-17T06:22:13.894Z,97149.94
2022-11-17T06:25:05.108Z,97153.28
2022-11-17T06:27:53.229Z,97154.88
2022-11-17T06:30:41.320Z,97150.59
2022-11-17T06:33:30.963Z,97155.53
2022-11-17T06:36:18.218Z,97163.22
2022-11-17T06:39:05.621Z,97169.13
2022-11-17T06:41:54.326Z,97163.06
2022-11-17T06:44:41.412Z,97170.56
2022-11-17T06:47:28.671Z,97179.84
2022-11-17T06:50:16.075Z,97171.22
2022-11-17T06:53:05.823Z,97178.91
2022-11-17T06:55:53.383Z,97191.69
2022-11-17T06:58:42.529Z,97182.06
2022-11-17T07:01:29.839Z,97179.53
2022-11-17T07:03:58.392Z,97181.13
2022-11-17T07:06:27.031Z,97188.63
2022-11-17T07:08:55.619Z,97186.69
2022-11-17T07:11:24.213Z,97181.56
2022-11-17T07:13:54.260Z,97188.31
2022-11-17T07:16:24.029Z,97175.34
2022-11-17T07:18:54.217Z,97164.94
2022-11-17T07:21:22.964Z,97180.16
2022-11-17T07:23:51.633Z,97182.72
2022-11-17T07:26:20.478Z,97175.66
2022-11-17T07:28:49.094Z,97171.34
2022-11-17T07:31:19.083Z,97167.97
2022-11-17T07:33:47.815Z,97160.94
2022-11-17T07:36:16.680Z,97171.19
2022-11-17T07:38:45.360Z,97167.63
2022-11-17T07:41:15.924Z,97180.44
2022-11-17T07:43:44.549Z,97164.13
2022-11-17T07:46:14.825Z,97169.25
2022-11-17T07:48:45.438Z,97168.13
2022-11-17T07:51:14.245Z,97173.25
2022-11-17T07:53:42.919Z,97182.69
2022-11-17T07:56:12.937Z,97175.63
2022-11-17T07:58:42.076Z,97172.13
2022-11-17T08:01:14.770Z,97169.56
2022-11-17T08:03:45.483Z,97167.78
2022-11-17T08:06:14.226Z,97174.50
2022-11-17T08:08:42.914Z,97167.47
2022-11-17T08:11:13.736Z,97172.59
2022-11-17T08:13:42.959Z,97168.25
2022-11-17T08:16:12.476Z,97174.19
2022-11-17T08:18:43.097Z,97174.81
2022-11-17T08:21:16.213Z,97173.06
2022-11-17T08:23:44.951Z,97175.44
2022-11-17T08:26:13.764Z,97179.78
2022-11-17T08:28:42.398Z,97171.13
2022-11-17T08:31:11.048Z,97188.09
2022-11-17T08:33:39.710Z,97188.09
2022-11-17T08:36:09.180Z,97191.28
2022-11-17T08:38:39.356Z,97199.94
2022-11-17T08:41:09.349Z,97194.81
2022-11-17T08:43:38.207Z,97188.91
2022-11-17T08:46:07.100Z,97199.94
2022-11-17T08:48:36.029Z,97199.94
2022-11-17T08:51:07.869Z,97194.81
2022-11-17T08:53:38.272Z,97198.19
2022-11-17T08:56:09.271Z,97204.25
2022-11-17T08:58:40.973Z,97211.78
2022-11-17T09:01:10.815Z,97199.94
2022-11-17T09:03:39.784Z,97194.81
2022-11-17T09:06:08.937Z,97189.69
2022-11-17T09:08:45.542Z,97199.94
2022-11-17T09:11:16.621Z,97208.59
2022-11-17T09:13:47.202Z,97217.06
2022-11-17T09:16:17.147Z,97221.41
2022-11-17T09:18:45.963Z,97223.97
2022-11-17T09:21:17.153Z,97229.88
2022-11-17T09:23:47.133Z,97231.00
2022-11-17T09:26:17.160Z,97226.66
2022-11-17T09:28:46.559Z,97227.47
2022-11-17T09:31:19.783Z,97242.84
2022-11-17T09:33:48.706Z,97226.66
2022-11-17T09:36:18.049Z,97236.13
2022-11-17T09:38:48.278Z,97251.50
2022-11-17T09:41:27.318Z,97246.38
2022-11-17T09:44:11.348Z,97255.81
2022-11-17T09:46:56.310Z,97254.22
2022-11-17T09:49:40.160Z,97265.25
2022-11-17T09:52:19.137Z,97274.72
2022-11-17T09:54:55.919Z,97264.47
2022-11-17T09:57:32.686Z,97273.75
2022-11-17T10:00:08.252Z,97281.44
2022-11-17T10:02:36.965Z,97284.00
2022-11-17T10:05:06.823Z,97281.44
2022-11-17T10:07:36.177Z,97277.09
2022-11-17T10:10:13.716Z,97282.22
2022-11-17T10:12:50.181Z,97293.25
2022-11-17T10:15:27.445Z,97284.78
2022-11-17T10:17:56.294Z,97293.25
2022-11-17T10:20:25.028Z,97293.25
2022-11-17T10:22:55.377Z,97285.44
2022-11-17T10:25:38.454Z,97285.44
2022-11-17T10:28:10.023Z,97283.66
2022-11-17T10:30:38.621Z,97283.66
2022-11-17T10:33:07.226Z,97280.94
2022-11-17T10:35:37.107Z,97276.78
2022-11-17T10:38:15.328Z,97268.13
2022-11-17T10:40:51.517Z,97279.16
2022-11-17T10:43:25.461Z,97268.91
2022-11-17T10:45:56.708Z,97272.31
2022-11-17T10:48:30.211Z,97284.19
2022-11-17T10:51:01.486Z,97286.75
2022-11-17T10:53:42.981Z,97290.88
2022-11-17T10:56:17.835Z,97278.06
2022-11-17T10:59:01.279Z,97281.47
2022-11-17T11:01:33.057Z,97289.16
2022-11-17T11:04:02.382Z,97283.19
2022-11-17T11:06:32.568Z,97286.41
2022-11-17T11:09:05.107Z,97281.28
2022-11-17T11:11:45.854Z,97283.84
2022-11-17T11:14:21.163Z,97283.84
2022-11-17T11:16:51.699Z,97272.66
2022-11-17T11:19:22.172Z,97293.16
2022-11-17T11:22:21.250Z,97283.84
2022-11-17T11:24:59.338Z,97278.72
2022-11-17T11:28:01.019Z,97290.72
2022-11-17T11:30:32.303Z,97285.59
2022-11-17T11:33:24.958Z,97290.59
2022-11-17T11:36:15.327Z,97282.91
2022-11-17T11:39:06.785Z,97276.16
2022-11-17T11:42:07.758Z,97276.16
2022-11-17T11:44:57.772Z,97281.28
2022-11-17T11:47:47.570Z,97276.16
2022-11-17T11:50:22.160Z,97276.97
2022-11-17T11:52:56.786Z,97282.09
2022-11-17T11:55:32.487Z,97285.47
2022-11-17T11:58:13.207Z,97277.78
2022-11-17T12:00:45.132Z,97272.66
2022-11-17T12:03:26.244Z,97280.34
2022-11-17T12:06:32.155Z,97271.84
2022-11-17T12:09:39.865Z,97277.91
2022-11-17T12:12:15.273Z,97284.81
2022-11-17T12:15:13.078Z,97279.69
2022-11-17T12:18:01.152Z,97283.19
2022-11-17T12:20:56.466Z,97271.22
2022-11-17T12:24:03.534Z,97286.59
2022-11-17T12:26:34.935Z,97293.44
2022-11-17T12:29:31.808Z,97278.06
2022-11-17T12:32:03.137Z,97286.59
2022-11-17T12:34:35.967Z,97293.44
2022-11-17T12:37:26.360Z,97310.44
2022-11-17T12:40:05.475Z,97299.38
2022-11-17T12:42:35.588Z,97291.88
2022-11-17T12:45:10.718Z,97284.81
2022-11-17T12:47:41.141Z,97284.81
2022-11-17T12:50:38.399Z,97278.06
2022-11-17T12:53:50.330Z,97271.38
2022-11-17T12:56:51.445Z,97277.44
2022-11-17T12:59:48.311Z,97264.63
2022-11-17T13:03:02.917Z,97264.63
2022-11-17T13:05:33.832Z,97253.56
2022-11-17T13:08:22.260Z,97254.38
2022-11-17T13:10:53.222Z,97255.16
2022-11-17T13:13:24.751Z,97269.75
2022-11-17T13:15:55.626Z,97273.09
2022-11-17T13:18:32.285Z,97293.44
2022-11-17T13:21:03.227Z,97303.69
2022-11-17T13:23:33.500Z,97325.00
2022-11-17T13:26:20.853Z,97314.75
2022-11-17T13:29:02.690Z,97334.44
2022-11-17T13:31:31.619Z,97321.63
2022-11-17T13:34:08.406Z,97336.03
2022-11-17T13:36:38.499Z,97329.31
2022-11-17T13:39:22.895Z,97327.56
2022-11-17T13:41:54.788Z,97326.75
2022-11-17T13:44:26.809Z,97315.56
2022-11-17T13:46:56.159Z,97337.00
2022-11-17T13:49:37.942Z,97330.13
2022-11-17T13:52:34.589Z,97337.97
2022-11-17T13:55:11.652Z,97339.69
2022-11-17T13:57:40.282Z,97320.03
2022-11-17T14:00:19.084Z,97307.25
2022-11-17T14:02:54.740Z,97304.78
2022-11-17T14:05:26.547Z,97316.63
2022-11-17T14:07:58.745Z,97306.38
2022-11-17T14:10:34.359Z,97323.53
2022-11-17T14:13:23.269Z,97313.44
2022-11-17T14:15:56.065Z,97335.69
2022-11-17T14:18:36.902Z,97349.31
2022-11-17T14:21:09.310Z,97353.63
2022-11-17T14:23:39.743Z,97362.28
2022-11-17T14:26:20.436Z,97369.97
2022-11-17T14:28:50.370Z,97386.28
2022-11-17T14:31:20.482Z,97376.03
2022-11-17T14:33:50.544Z,97387.06
2022-11-17T14:36:19.631Z,97394.94
2022-11-17T14:38:49.651Z,97403.56
2022-11-17T14:41:19.739Z,97400.38
2022-11-17T14:43:48.843Z,97394.44
2022-11-17T14:46:24.143Z,97383.41
2022-11-17T14:48:53.779Z,97386.91
2022-11-17T14:51:22.933Z,97389.63
2022-11-17T14:53:54.196Z,97393.97
2022-11-17T14:56:25.007Z,97384.69
2022-11-17T14:58:57.149Z,97384.69
2022-11-17T15:01:29.281Z,97376.22
2022-11-17T15:03:59.972Z,97379.72
2022-11-17T15:06:29.272Z,97381.47
2022-11-17T15:09:02.171Z,97364.53
2022-11-17T15:11:39.306Z,97373.00
2022-11-17T15:14:08.788Z,97370.59
2022-11-17T15:16:37.458Z,97378.44
2022-11-17T15:19:07.088Z,97396.38
2022-11-17T15:21:35.857Z,97381.94
2022-11-17T15:24:09.313Z,97372.50
2022-11-17T15:26:38.323Z,97370.91
2022-11-17T15:29:07.024Z,97380.34
2022-11-17T15:31:35.835Z,97372.66
2022-11-17T15:34:04.515Z,97374.44
2022-11-17T15:36:33.263Z,97373.66
2022-11-17T15:39:02.056Z,97367.69
2022-11-17T15:41:33.154Z,97355.84
2022-11-17T15:44:02.043Z,97369.63
2022-11-17T15:46:30.760Z,97385.00
2022-11-17T15:48:59.604Z,97376.50
2022-11-17T15:51:29.231Z,97362.91
2022-11-17T15:54:00.597Z,97379.22
2022-11-17T15:56:36.311Z,97380.16
2022-11-17T15:59:07.063Z,97381.78
2022-11-17T16:01:37.506Z,97377.59
2022-11-17T16:04:08.452Z,97388.00
2022-11-17T16:06:39.291Z,97391.41
2022-11-17T16:09:08.660Z,97407.72
2022-11-17T16:11:39.079Z,97421.31
2022-11-17T16:14:08.303Z,97424.81
2022-11-17T16:16:39.696Z,97420.50
2022-11-17T16:19:08.627Z,97414.56
2022-11-17T16:21:37.347Z,97401.78
2022-11-17T16:24:08.176Z,97393.31
2022-11-17T16:26:39.143Z,97400.97
2022-11-17T16:29:09.274Z,97393.47
2022-11-17T16:31:38.990Z,97392.66
2022-11-17T16:34:12.627Z,97401.31
2022-11-17T16:36:43.658Z,97395.22
2022-11-17T16:39:15.218Z,97394.56
2022-11-17T16:41:46.724Z,97389.44
2022-11-17T16:44:18.111Z,97384.34
2022-11-17T16:46:49.760Z,97387.06
2022-11-17T16:49:20.228Z,97385.44
2022-11-17T16:51:50.989Z,97398.09
2022-11-17T16:54:20.969Z,97388.81
2022-11-17T16:56:50.961Z,97392.34
2022-11-17T16:59:19.785Z,97389.94
2022-11-17T17:01:48.664Z,97395.06
2022-11-17T17:04:17.279Z,97375.38
2022-11-17T17:06:46.569Z,97364.34
2022-11-17T17:09:16.838Z,97364.47
2022-11-17T17:11:46.613Z,97374.72
2022-11-17T17:14:17.454Z,97378.25
2022-11-17T17:16:46.207Z,97377.44
2022-11-17T17:19:17.833Z,97375.84
2022-11-17T17:21:49.116Z,97373.28
2022-11-17T17:24:17.816Z,97368.97
2022-11-17T17:26:46.531Z,97365.44
2022-11-17T17:29:16.935Z,97370.56
2022-11-17T17:31:45.792Z,97380.97
2022-11-17T17:34:14.731Z,97390.22
2022-11-17T17:36:44.376Z,97399.69
2022-11-17T17:39:16.299Z,97409.91
2022-11-17T17:41:46.006Z,97417.59
2022-11-17T17:44:18.838Z,97406.56
2022-11-17T17:46:48.760Z,97401.44
2022-11-17T17:49:18.993Z,97405.75
2022-11-17T17:51:48.216Z,97418.56
2022-11-17T17:54:19.868Z,97424.63
2022-11-17T17:56:49.082Z,97425.44
2022-11-17T17:59:19.599Z,97423.66
2022-11-17T18:01:49.579Z,97425.44
2022-11-17T18:04:18.272Z,97425.59
2022-11-17T18:06:48.468Z,97434.84
2022-11-17T18:09:20.440Z,97426.38
2022-11-17T18:11:51.144Z,97422.06
2022-11-17T18:14:25.081Z,97409.25
2022-11-17T18:16:54.468Z,97406.88
2022-11-17T18:19:28.295Z,97417.91
2022-11-17T18:22:00.114Z,97419.81
2022-11-17T18:24:28.931Z,97425.75
2022-11-17T18:26:57.470Z,97426.53
2022-11-17T18:29:27.614Z,97429.28
2022-11-17T18:31:56.191Z,97411.34
2022-11-17T18:34:26.571Z,97407.03
2022-11-17T18:36:57.129Z,97407.97
2022-11-17T18:39:27.431Z,97413.09
2022-11-17T18:41:56.224Z,97420.78
2022-11-17T18:44:26.285Z,97413.91
2022-11-17T18:46:59.596Z,97404.47
2022-11-17T18:49:31.812Z,97408.78
2022-11-17T18:52:00.518Z,97411.34
2022-11-17T18:54:29.149Z,97407.84
2022-11-17T18:56:57.789Z,97409.56
2022-11-17T18:59:27.912Z,97407.03
2022-11-17T19:01:56.744Z,97396.78
2022-11-17T19:04:25.474Z,97400.94
2022-11-17T19:06:54.141Z,97406.06
2022-11-17T19:09:22.803Z,97405.28
2022-11-17T19:11:51.384Z,97400.94
2022-11-17T19:14:20.051Z,97396.63
2022-11-17T19:16:50.747Z,97404.31
2022-11-17T19:19:19.651Z,97405.13
2022-11-17T19:21:48.543Z,97409.25
2022-11-17T19:24:17.415Z,97407.69
2022-11-17T19:26:46.051Z,97402.56
2022-11-17T19:29:17.566Z,97405.13
2022-11-17T19:31:47.616Z,97424.00
2022-11-17T19:34:17.845Z,97415.66
2022-11-17T19:36:46.616Z,97416.63
2022-11-17T19:39:17.087Z,97424.47
2022-11-17T19:41:47.766Z,97425.56
2022-11-17T19:44:16.487Z,97418.84
2022-11-17T19:46:45.153Z,97423.16
2022-11-17T19:49:14.140Z,97407.00
2022-11-17T19:51:44.391Z,97419.16
2022-11-17T19:54:14.840Z,97420.13
2022-11-17T19:56:43.526Z,97421.84
2022-11-17T19:59:15.936Z,97420.28
2022-11-17T20:01:46.334Z,97424.56
2022-11-17T20:04:15.142Z,97438.34
2022-11-17T20:06:45.451Z,97442.50
2022-11-17T20:09:16.044Z,97436.59
2022-11-17T20:11:44.943Z,97434.81
2022-11-17T20:14:14.503Z,97434.03
2022-11-17T20:16:43.322Z,97435.78
2022-11-17T20:19:13.814Z,97435.91
2022-11-17T20:21:44.124Z,97433.34
2022-11-17T20:24:12.914Z,97437.69
2022-11-17T20:26:43.116Z,97435.13
2022-11-17T20:29:11.801Z,97418.97
2022-11-17T20:31:40.438Z,97427.63
2022-11-17T20:34:12.846Z,97433.53
2022-11-17T20:36:42.948Z,97439.63
2022-11-17T20:39:11.663Z,97442.19
2022-11-17T20:41:40.344Z,97444.75
2022-11-17T20:44:24.795Z,97442.00
2022-11-17T20:46:54.994Z,97443.75
2022-11-17T20:49:24.565Z,97437.84
2022-11-17T20:51:54.612Z,97446.31
2022-11-17T20:54:23.363Z,97450.47
2022-11-17T20:56:52.004Z,97451.28
2022-11-17T20:59:20.697Z,97452.09
2022-11-17T21:01:50.579Z,97456.25
2022-11-17T21:04:37.686Z,97456.38
2022-11-17T21:07:26.400Z,97467.59
2022-11-17T21:10:13.444Z,97460.88
2022-11-17T21:13:00.686Z,97474.31
2022-11-17T21:15:48.407Z,97461.50
2022-11-17T21:18:36.786Z,97467.44
2022-11-17T21:21:24.091Z,97493.03
2022-11-17T21:24:13.055Z,97494.00
2022-11-17T21:27:00.123Z,97493.84
2022-11-17T21:29:48.024Z,97487.75
2022-11-17T21:32:35.193Z,97488.72
2022-11-17T21:35:22.222Z,97496.22
2022-11-17T21:38:11.054Z,97501.34
2022-11-17T21:41:04.680Z,97510.81
2022-11-17T21:43:53.555Z,97518.47
2022-11-17T21:46:41.025Z,97523.44
2022-11-17T21:49:28.258Z,97522.66
2022-11-17T21:52:15.519Z,97520.09
2022-11-17T21:55:02.649Z,97520.88
2022-11-17T21:57:53.095Z,97513.19
2022-11-17T22:00:40.720Z,97513.19
2022-11-17T22:03:27.711Z,97516.56
2022-11-17T22:06:18.141Z,97528.56
2022-11-17T22:09:05.993Z,97524.22
2022-11-17T22:11:53.230Z,97527.63
2022-11-17T22:14:42.003Z,97522.50
2022-11-17T22:17:29.300Z,97516.44
2022-11-17T22:20:17.070Z,97525.06
2022-11-17T22:23:04.117Z,97521.53
2022-11-17T22:25:56.417Z,97528.25
2022-11-17T22:28:43.743Z,97531.78
2022-11-17T22:31:32.931Z,97544.59
2022-11-17T22:34:20.468Z,97535.13
2022-11-17T22:37:07.807Z,97531.78
2022-11-17T22:39:54.913Z,97528.25
2022-11-17T22:42:42.104Z,97524.91
2022-11-17T22:45:29.283Z,97527.44
2022-11-17T22:48:17.633Z,97530.16
2022-11-17T22:51:08.248Z,97528.25
2022-11-17T22:53:55.328Z,97526.66
2022-11-17T22:56:42.812Z,97536.91
2022-11-17T22:59:31.551Z,97520.88
2022-11-17T23:02:18.892Z,97511.59
2022-11-17T23:05:07.899Z,97507.44
2022-11-17T23:07:55.168Z,97515.91
2022-11-17T23:10:42.422Z,97517.69
2022-11-17T23:13:29.866Z,97510.13
2022-11-17T23:16:17.353Z,97516.06
2022-11-17T23:19:06.180Z,97514.47
2022-11-17T23:21:54.627Z,97512.06
2022-11-17T23:24:41.990Z,97524.06
2022-11-17T23:27:29.394Z,97530.91
2022-11-17T23:30:16.848Z,97539.44
2022-11-17T23:33:03.931Z,97533.47
2022-11-17T23:35:50.875Z,97535.25
2022-11-17T23:38:39.314Z,97534.31
2022-11-17T23:41:26.801Z,97528.53
2022-11-17T23:44:14.246Z,97537.97
2022-11-17T23:47:01.478Z,97544.81
2022-11-17T23:49:49.070Z,97547.38
2022-11-17T23:52:36.140Z,97549.94
2022-11-17T23:55:24.815Z,97538.13
2022-11-17T23:58:11.839Z,97538.91
